createdAt,value
2023-02-15T00:02:00.827Z,99833.09
2023-02-15T00:04:47.451Z,99829.22
2023-02-15T00:07:19.879Z,99831.53
2023-02-15T00:09:50.470Z,99826.47
2023-02-15T00:12:17.623Z,99835.44
2023-02-15T00:14:44.474Z,99836.81
2023-02-15T00:17:11.128Z,99837.94
2023-02-15T00:19:41.134Z,99834.28
2023-02-15T00:22:08.336Z,99830.88
2023-02-15T00:24:34.932Z,99832.31
2023-02-15T00:27:01.487Z,99841.25
2023-02-15T00:29:28.080Z,99832.06
2023-02-15T00:31:54.674Z,99837.84
2023-02-15T00:34:26.086Z,99832.06
2023-02-15T00:36:52.884Z,99833.50
2023-02-15T00:39:20.196Z,99833.97
2023-02-15T00:41:47.836Z,99838.81
2023-02-15T00:44:14.735Z,99841.31
2023-02-15T00:46:41.488Z,99846.41
2023-02-15T00:49:10.327Z,99833.63
2023-02-15T00:51:36.928Z,99836.28
2023-02-15T00:54:03.568Z,99840.22
2023-02-15T00:56:30.235Z,99840.16
2023-02-15T00:58:59.162Z,99842.59
2023-02-15T01:01:26.911Z,99829.84
2023-02-15T01:03:53.863Z,99827.19
2023-02-15T01:06:20.475Z,99830.88
2023-02-15T01:08:47.771Z,99821.44
2023-02-15T01:11:25.651Z,99815.59
2023-02-15T01:13:58.290Z,99820.81
2023-02-15T01:16:31.202Z,99815.41
2023-02-15T01:18:58.045Z,99818.66
2023-02-15T01:21:26.772Z,99809.75
2023-02-15T01:23:53.817Z,99810.16
2023-02-15T01:26:26.318Z,99818.69
2023-02-15T01:28:53.087Z,99810.84
2023-02-15T01:31:21.991Z,99814.91
2023-02-15T01:33:49.547Z,99815.50
2023-02-15T01:36:18.332Z,99812.44
2023-02-15T01:38:45.045Z,99815.59
2023-02-15T01:41:30.617Z,99819.38
2023-02-15T01:44:02.391Z,99810.41
2023-02-15T01:46:42.612Z,99823.06
2023-02-15T01:49:15.139Z,99813.22
2023-02-15T01:51:44.465Z,99813.72
2023-02-15T01:54:22.659Z,99813.06
2023-02-15T01:56:49.647Z,99816.72
2023-02-15T01:59:21.729Z,99801.44
2023-02-15T02:01:49.612Z,99800.13
2023-02-15T02:04:30.861Z,99796.78
2023-02-15T02:06:58.612Z,99786.25
2023-02-15T02:09:25.860Z,99788.69
2023-02-15T02:12:02.951Z,99787.41
2023-02-15T02:14:30.121Z,99784.59
2023-02-15T02:17:18.449Z,99782.09
2023-02-15T02:20:22.469Z,99780.50
2023-02-15T02:23:33.087Z,99782.72
2023-02-15T02:26:30.376Z,99776.53
2023-02-15T02:29:38.974Z,99776.34
2023-02-15T02:32:18.422Z,99776.41
2023-02-15T02:34:54.100Z,99771.78
2023-02-15T02:37:28.898Z,99774.00
2023-02-15T02:40:17.087Z,99768.19
2023-02-15T02:43:20.332Z,99770.25
2023-02-15T02:46:10.472Z,99769.25
2023-02-15T02:48:38.320Z,99764.81
2023-02-15T02:51:04.864Z,99764.56
2023-02-15T02:53:35.852Z,99762.72
2023-02-15T02:56:29.228Z,99767.78
2023-02-15T02:59:03.137Z,99764.81
2023-02-15T03:01:34.451Z,99759.06
2023-02-15T03:04:07.839Z,99762.22
2023-02-15T03:06:48.265Z,99762.50
2023-02-15T03:09:35.644Z,99755.72
2023-02-15T03:12:04.887Z,99747.59
2023-02-15T03:14:31.667Z,99738.38
2023-02-15T03:17:00.825Z,99742.38
2023-02-15T03:19:31.166Z,99738.75
2023-02-15T03:22:10.436Z,99736.66
2023-02-15T03:24:52.425Z,99735.22
2023-02-15T03:27:30.307Z,99741.50
2023-02-15T03:30:00.527Z,99732.31
2023-02-15T03:32:30.612Z,99727.25
2023-02-15T03:34:57.222Z,99721.97
2023-02-15T03:37:35.804Z,99725.66
2023-02-15T03:40:38.970Z,99711.59
2023-02-15T03:43:43.052Z,99719.41
2023-02-15T03:46:43.982Z,99715.63
2023-02-15T03:49:17.216Z,99716.91
2023-02-15T03:51:47.213Z,99710.97
2023-02-15T03:54:45.912Z,99714.22
2023-02-15T03:57:42.224Z,99718.28
2023-02-15T04:00:44.700Z,99719.53
2023-02-15T04:03:37.111Z,99729.25
2023-02-15T04:06:04.453Z,99721.81
2023-02-15T04:08:49.782Z,99717.09
2023-02-15T04:11:16.389Z,99713.09
2023-02-15T04:13:43.299Z,99710.09
2023-02-15T04:16:10.110Z,99713.19
2023-02-15T04:18:56.434Z,99705.38
2023-02-15T04:21:43.180Z,99711.25
2023-02-15T04:24:29.261Z,99709.56
2023-02-15T04:26:59.445Z,99702.28
2023-02-15T04:29:30.171Z,99707.88
2023-02-15T04:31:59.135Z,99693.06
2023-02-15T04:34:26.212Z,99703.84
2023-02-15T04:36:52.837Z,99699.78
2023-02-15T04:39:19.912Z,99693.69
2023-02-15T04:41:47.165Z,99703.91
2023-02-15T04:44:18.344Z,99704.66
2023-02-15T04:46:44.895Z,99704.81
2023-02-15T04:49:11.443Z,99698.41
2023-02-15T04:51:45.511Z,99701.28
2023-02-15T04:54:12.075Z,99691.44
2023-02-15T04:56:40.041Z,99687.06
2023-02-15T04:59:06.947Z,99693.31
2023-02-15T05:01:41.111Z,99689.50
2023-02-15T05:04:07.739Z,99693.75
2023-02-15T05:06:34.584Z,99682.22
2023-02-15T05:09:01.213Z,99677.75
2023-02-15T05:11:28.288Z,99677.94
2023-02-15T05:13:54.880Z,99675.75
2023-02-15T05:16:21.491Z,99672.22
2023-02-15T05:18:48.064Z,99675.81
2023-02-15T05:21:14.858Z,99678.25
2023-02-15T05:23:41.861Z,99684.03
2023-02-15T05:26:32.383Z,99677.69
2023-02-15T05:28:58.982Z,99683.56
2023-02-15T05:31:25.749Z,99684.75
2023-02-15T05:33:53.761Z,99686.94
2023-02-15T05:36:20.299Z,99682.69
2023-02-15T05:38:46.807Z,99681.38
2023-02-15T05:41:13.390Z,99680.50
2023-02-15T05:43:40.243Z,99680.25
2023-02-15T05:46:07.835Z,99673.84
2023-02-15T05:48:35.553Z,99678.94
2023-02-15T05:51:12.232Z,99672.59
2023-02-15T05:53:40.012Z,99670.00
2023-02-15T05:56:10.256Z,99677.41
2023-02-15T05:58:39.670Z,99666.91
2023-02-15T06:01:14.546Z,99672.16
2023-02-15T06:03:42.235Z,99662.59
2023-02-15T06:06:09.689Z,99664.97
2023-02-15T06:08:37.881Z,99660.97
2023-02-15T06:11:05.448Z,99664.66
2023-02-15T06:13:33.000Z,99669.00
2023-02-15T06:15:59.822Z,99664.94
2023-02-15T06:18:26.807Z,99662.16
2023-02-15T06:20:53.360Z,99657.53
2023-02-15T06:23:19.965Z,99655.09
2023-02-15T06:25:48.154Z,99653.22
2023-02-15T06:28:22.367Z,99646.59
2023-02-15T06:30:48.988Z,99650.72
2023-02-15T06:33:15.659Z,99652.53
2023-02-15T06:35:42.267Z,99647.53
2023-02-15T06:38:18.740Z,99651.28
2023-02-15T06:40:45.340Z,99645.06
2023-02-15T06:43:22.294Z,99645.56
2023-02-15T06:45:49.038Z,99651.72
2023-02-15T06:48:15.723Z,99643.00
2023-02-15T06:50:43.064Z,99647.25
2023-02-15T06:53:12.693Z,99649.72
2023-02-15T06:55:39.242Z,99647.25
2023-02-15T06:58:10.287Z,99640.13
2023-02-15T07:00:37.054Z,99643.25
2023-02-15T07:03:04.083Z,99641.72
2023-02-15T07:05:34.725Z,99645.84
2023-02-15T07:08:04.608Z,99649.59
2023-02-15T07:10:31.595Z,99647.78
2023-02-15T07:12:58.400Z,99650.41
2023-02-15T07:15:25.652Z,99648.16
2023-02-15T07:17:52.362Z,99640.56
2023-02-15T07:20:24.213Z,99638.81
2023-02-15T07:22:51.441Z,99645.84
2023-02-15T07:25:18.902Z,99644.06
2023-02-15T07:27:46.038Z,99636.59
2023-02-15T07:30:16.386Z,99642.16
2023-02-15T07:33:04.554Z,99644.97
2023-02-15T07:35:32.213Z,99635.81
2023-02-15T07:37:58.758Z,99636.88
2023-02-15T07:40:25.867Z,99634.28
2023-02-15T07:42:54.503Z,99632.44
2023-02-15T07:45:23.130Z,99638.97
2023-02-15T07:47:49.883Z,99631.31
2023-02-15T07:50:16.650Z,99640.00
2023-02-15T07:52:43.217Z,99637.03
2023-02-15T07:55:09.971Z,99638.41
2023-02-15T07:57:36.657Z,99633.66
2023-02-15T08:00:07.497Z,99630.81
2023-02-15T08:02:35.163Z,99629.13
2023-02-15T08:05:01.916Z,99620.88
2023-02-15T08:07:28.452Z,99624.28
2023-02-15T08:09:55.019Z,99626.16
2023-02-15T08:12:21.709Z,99614.13
2023-02-15T08:14:55.785Z,99610.59
2023-02-15T08:17:22.367Z,99607.38
2023-02-15T08:19:49.009Z,99608.69
2023-02-15T08:22:15.781Z,99610.03
2023-02-15T08:24:42.626Z,99605.13
2023-02-15T08:27:14.256Z,99601.34
2023-02-15T08:29:42.315Z,99605.50
2023-02-15T08:32:11.708Z,99595.47
2023-02-15T08:34:41.569Z,99604.47
2023-02-15T08:37:08.333Z,99599.13
2023-02-15T08:39:38.209Z,99591.44
2023-02-15T08:42:05.016Z,99587.19
2023-02-15T08:44:31.978Z,99591.97
2023-02-15T08:47:03.864Z,99599.28
2023-02-15T08:49:30.709Z,99592.78
2023-02-15T08:52:00.874Z,99594.75
2023-02-15T08:54:27.538Z,99594.78
2023-02-15T08:56:54.234Z,99593.66
2023-02-15T08:59:22.824Z,99587.66
2023-02-15T09:01:51.314Z,99588.31
2023-02-15T09:04:22.107Z,99585.91
2023-02-15T09:06:49.909Z,99593.13
2023-02-15T09:09:18.267Z,99599.19
2023-02-15T09:11:47.880Z,99596.38
2023-02-15T09:14:30.650Z,99605.53
2023-02-15T09:16:57.367Z,99599.00
2023-02-15T09:19:24.779Z,99597.38
2023-02-15T09:21:51.669Z,99606.81
2023-02-15T09:24:19.020Z,99602.25
2023-02-15T09:26:49.702Z,99598.50
2023-02-15T09:29:17.667Z,99601.66
2023-02-15T09:31:47.628Z,99601.94
2023-02-15T09:34:17.339Z,99592.63
2023-02-15T09:36:44.278Z,99594.94
2023-02-15T09:39:14.970Z,99594.56
2023-02-15T09:41:56.196Z,99598.88
2023-02-15T09:44:47.271Z,99599.72
2023-02-15T09:47:35.035Z,99590.47
2023-02-15T09:50:22.477Z,99585.72
2023-02-15T09:53:01.022Z,99593.13
2023-02-15T09:55:43.048Z,99598.84
2023-02-15T09:58:26.747Z,99596.75
2023-02-15T10:01:21.620Z,99598.50
2023-02-15T10:04:10.205Z,99594.44
2023-02-15T10:06:43.628Z,99589.97
2023-02-15T10:09:16.402Z,99580.50
2023-02-15T10:12:34.209Z,99575.44
2023-02-15T10:15:20.223Z,99567.84
2023-02-15T10:18:02.188Z,99573.13
2023-02-15T10:20:53.974Z,99568.75
2023-02-15T10:23:47.537Z,99566.03
2023-02-15T10:26:38.563Z,99564.97
2023-02-15T10:29:29.996Z,99556.75
2023-02-15T10:32:06.630Z,99552.81
2023-02-15T10:34:44.490Z,99547.38
2023-02-15T10:37:35.604Z,99546.81
2023-02-15T10:40:30.033Z,99533.88
2023-02-15T10:43:15.165Z,99527.38
2023-02-15T10:45:54.489Z,99521.50
2023-02-15T10:48:24.481Z,99507.75
2023-02-15T10:51:05.745Z,99514.44
2023-02-15T10:53:47.642Z,99518.44
2023-02-15T10:56:31.295Z,99508.56
2023-02-15T10:59:19.698Z,99512.28
2023-02-15T11:02:05.220Z,99510.13
2023-02-15T11:04:57.937Z,99502.03
2023-02-15T11:07:30.280Z,99500.00
2023-02-15T11:10:34.240Z,99507.44
2023-02-15T11:13:09.765Z,99500.63
2023-02-15T11:15:46.206Z,99503.03
2023-02-15T11:18:21.348Z,99504.06
2023-02-15T11:20:56.783Z,99501.66
2023-02-15T11:23:26.076Z,99505.31
2023-02-15T11:26:02.186Z,99505.34
2023-02-15T11:28:35.092Z,99494.44
2023-02-15T11:31:18.644Z,99492.72
2023-02-15T11:33:51.330Z,99480.25
2023-02-15T11:36:24.994Z,99480.81
2023-02-15T11:38:58.285Z,99467.34
2023-02-15T11:41:29.759Z,99471.22
2023-02-15T11:44:16.457Z,99464.97
2023-02-15T11:46:43.454Z,99458.53
2023-02-15T11:49:31.928Z,99452.63
2023-02-15T11:52:01.598Z,99458.22
2023-02-15T11:54:31.801Z,99461.63
2023-02-15T11:57:14.751Z,99446.97
2023-02-15T11:59:45.485Z,99447.97
2023-02-15T12:02:34.262Z,99438.28
2023-02-15T12:05:06.779Z,99439.34
2023-02-15T12:07:49.401Z,99440.50
2023-02-15T12:10:25.775Z,99431.84
2023-02-15T12:13:19.672Z,99420.38
2023-02-15T12:15:52.359Z,99438.59
2023-02-15T12:18:39.995Z,99425.81
2023-02-15T12:21:11.409Z,99422.53
2023-02-15T12:23:48.098Z,99428.06
2023-02-15T12:26:15.383Z,99416.22
2023-02-15T12:28:53.213Z,99415.81
2023-02-15T12:31:27.856Z,99404.97
2023-02-15T12:33:58.089Z,99397.97
2023-02-15T12:36:45.601Z,99403.34
2023-02-15T12:39:15.003Z,99405.59
2023-02-15T12:42:01.839Z,99408.28
2023-02-15T12:44:32.088Z,99406.84
2023-02-15T12:47:20.001Z,99408.28
2023-02-15T12:50:35.364Z,99403.81
2023-02-15T12:53:24.135Z,99398.69
2023-02-15T12:55:58.225Z,99392.81
2023-02-15T12:58:31.319Z,99390.38
2023-02-15T13:01:10.515Z,99402.09
2023-02-15T13:03:40.504Z,99398.34
2023-02-15T13:06:09.649Z,99405.03
2023-02-15T13:08:49.060Z,99400.72
2023-02-15T13:11:31.373Z,99398.72
2023-02-15T13:14:01.879Z,99404.28
2023-02-15T13:16:36.286Z,99400.41
2023-02-15T13:19:27.158Z,99400.84
2023-02-15T13:21:56.681Z,99393.16
2023-02-15T13:24:38.685Z,99397.31
2023-02-15T13:27:15.612Z,99387.84
2023-02-15T13:29:46.654Z,99399.63
2023-02-15T13:32:27.461Z,99387.66
2023-02-15T13:35:06.122Z,99393.34
2023-02-15T13:38:00.442Z,99385.00
2023-02-15T13:40:46.692Z,99384.81
2023-02-15T13:43:43.709Z,99383.09
2023-02-15T13:46:18.744Z,99381.72
2023-02-15T13:48:57.880Z,99370.22
2023-02-15T13:51:50.664Z,99375.28
2023-02-15T13:54:48.439Z,99379.03
2023-02-15T13:57:33.875Z,99370.28
2023-02-15T14:00:11.843Z,99363.53
2023-02-15T14:03:21.115Z,99359.13
2023-02-15T14:06:16.984Z,99355.66
2023-02-15T14:08:56.083Z,99355.50
2023-02-15T14:11:44.539Z,99359.34
2023-02-15T14:14:29.489Z,99362.00
2023-02-15T14:17:11.871Z,99355.81
2023-02-15T14:19:51.006Z,99359.31
2023-02-15T14:22:40.742Z,99346.97
2023-02-15T14:25:45.688Z,99346.19
2023-02-15T14:28:42.937Z,99350.88
2023-02-15T14:31:14.319Z,99343.88
2023-02-15T14:33:48.404Z,99343.78
2023-02-15T14:36:22.166Z,99333.28
2023-02-15T14:39:51.667Z,99347.38
2023-02-15T14:42:30.302Z,99346.50
2023-02-15T14:45:18.423Z,99351.75
2023-02-15T14:48:11.797Z,99350.16
2023-02-15T14:50:43.323Z,99351.00
2023-02-15T14:53:37.427Z,99351.97
2023-02-15T14:56:26.275Z,99348.63
2023-02-15T14:58:56.546Z,99337.31
2023-02-15T15:01:31.608Z,99339.94
2023-02-15T15:04:09.093Z,99344.38
2023-02-15T15:06:40.621Z,99340.81
2023-02-15T15:09:27.916Z,99347.03
2023-02-15T15:12:07.896Z,99345.31
2023-02-15T15:14:34.489Z,99344.50
2023-02-15T15:17:05.987Z,99344.53
2023-02-15T15:19:52.014Z,99344.56
2023-02-15T15:22:22.873Z,99344.66
2023-02-15T15:24:56.469Z,99348.19
2023-02-15T15:27:44.896Z,99342.03
2023-02-15T15:30:14.299Z,99337.66
2023-02-15T15:33:01.206Z,99350.00
2023-02-15T15:35:49.545Z,99338.63
2023-02-15T15:38:38.304Z,99335.19
2023-02-15T15:41:41.228Z,99343.09
2023-02-15T15:44:32.570Z,99347.47
2023-02-15T15:47:22.609Z,99351.00
2023-02-15T15:49:49.511Z,99355.41
2023-02-15T15:52:19.215Z,99345.84
2023-02-15T15:54:51.409Z,99341.50
2023-02-15T15:57:33.005Z,99338.91
2023-02-15T16:00:02.727Z,99338.09
2023-02-15T16:02:29.446Z,99333.75
2023-02-15T16:05:07.183Z,99332.91
2023-02-15T16:07:33.874Z,99338.16
2023-02-15T16:10:13.876Z,99339.88
2023-02-15T16:12:41.069Z,99334.66
2023-02-15T16:15:50.741Z,99339.03
2023-02-15T16:18:20.047Z,99347.75
2023-02-15T16:21:00.198Z,99339.03
2023-02-15T16:23:35.964Z,99341.56
2023-02-15T16:26:08.367Z,99347.63
2023-02-15T16:28:35.264Z,99350.16
2023-02-15T16:31:13.445Z,99352.69
2023-02-15T16:33:49.851Z,99339.50
2023-02-15T16:36:25.643Z,99344.63
2023-02-15T16:38:52.243Z,99341.09
2023-02-15T16:41:26.808Z,99341.03
2023-02-15T16:43:55.259Z,99346.13
2023-02-15T16:46:32.260Z,99339.00
2023-02-15T16:49:05.452Z,99344.16
2023-02-15T16:51:35.645Z,99341.44
2023-02-15T16:54:09.014Z,99347.38
2023-02-15T16:56:37.463Z,99350.75
2023-02-15T16:59:06.917Z,99351.47
2023-02-15T17:01:36.493Z,99353.13
2023-02-15T17:04:39.002Z,99360.84
2023-02-15T17:07:22.665Z,99353.75
2023-02-15T17:09:57.282Z,99354.56
2023-02-15T17:12:56.085Z,99351.72
2023-02-15T17:15:40.996Z,99355.91
2023-02-15T17:18:15.661Z,99359.94
2023-02-15T17:20:44.577Z,99358.13
2023-02-15T17:23:34.576Z,99361.59
2023-02-15T17:26:22.344Z,99359.16
2023-02-15T17:28:53.694Z,99363.59
2023-02-15T17:31:21.640Z,99364.44
2023-02-15T17:33:52.991Z,99365.41
2023-02-15T17:36:24.893Z,99361.94
2023-02-15T17:38:57.442Z,99370.47
2023-02-15T17:41:35.221Z,99356.38
2023-02-15T17:44:03.963Z,99363.34
2023-02-15T17:46:35.812Z,99366.69
2023-02-15T17:49:03.007Z,99371.66
2023-02-15T17:51:32.288Z,99371.41
2023-02-15T17:54:17.472Z,99364.47
2023-02-15T17:56:44.044Z,99357.47
2023-02-15T17:59:14.976Z,99367.69
2023-02-15T18:02:07.208Z,99362.38
2023-02-15T18:04:54.747Z,99376.91
2023-02-15T18:07:40.183Z,99362.91
2023-02-15T18:10:34.673Z,99354.41
2023-02-15T18:13:01.687Z,99352.75
2023-02-15T18:15:28.600Z,99344.38
2023-02-15T18:17:55.550Z,99343.50
2023-02-15T18:20:33.131Z,99343.50
2023-02-15T18:23:02.186Z,99338.31
2023-02-15T18:25:29.065Z,99336.44
2023-02-15T18:27:55.769Z,99346.44
2023-02-15T18:30:29.263Z,99347.81
2023-02-15T18:32:58.676Z,99346.72
2023-02-15T18:35:28.675Z,99352.38
2023-02-15T18:37:56.357Z,99351.22
2023-02-15T18:40:27.336Z,99339.94
2023-02-15T18:42:57.096Z,99339.75
2023-02-15T18:45:28.570Z,99331.91
2023-02-15T18:47:55.440Z,99343.00
2023-02-15T18:50:24.763Z,99337.94
2023-02-15T18:52:51.682Z,99337.19
2023-02-15T18:55:25.622Z,99345.72
2023-02-15T18:57:55.132Z,99343.06
2023-02-15T19:00:32.509Z,99344.88
2023-02-15T19:03:03.406Z,99341.09
2023-02-15T19:05:31.855Z,99335.47
2023-02-15T19:08:00.736Z,99340.47
2023-02-15T19:10:29.608Z,99324.75
2023-02-15T19:12:56.773Z,99336.53
2023-02-15T19:15:28.449Z,99326.00
2023-02-15T19:17:55.498Z,99331.09
2023-02-15T19:20:27.944Z,99324.38
2023-02-15T19:22:57.004Z,99325.31
2023-02-15T19:25:30.205Z,99313.13
2023-02-15T19:27:58.432Z,99325.72
2023-02-15T19:30:29.593Z,99334.69
2023-02-15T19:32:57.483Z,99330.31
2023-02-15T19:35:33.084Z,99321.41
2023-02-15T19:38:02.206Z,99323.00
2023-02-15T19:40:32.075Z,99328.03
2023-02-15T19:42:59.036Z,99321.13
2023-02-15T19:45:35.519Z,99328.13
2023-02-15T19:48:02.514Z,99333.38
2023-02-15T19:50:31.761Z,99326.22
2023-02-15T19:52:58.373Z,99334.66
2023-02-15T19:55:26.445Z,99329.47
2023-02-15T19:57:57.279Z,99334.47
2023-02-15T20:00:29.257Z,99329.13
2023-02-15T20:02:57.973Z,99337.56
2023-02-15T20:05:25.973Z,99345.22
2023-02-15T20:07:53.571Z,99346.84
2023-02-15T20:10:22.990Z,99346.63
2023-02-15T20:12:50.342Z,99346.44
2023-02-15T20:15:22.893Z,99337.41
2023-02-15T20:17:50.835Z,99332.97
2023-02-15T20:20:18.779Z,99345.78
2023-02-15T20:22:48.115Z,99333.41
2023-02-15T20:25:30.134Z,99336.72
2023-02-15T20:27:59.313Z,99325.34
2023-02-15T20:30:28.468Z,99326.84
2023-02-15T20:32:55.780Z,99326.94
2023-02-15T20:35:24.779Z,99322.53
2023-02-15T20:37:56.624Z,99331.81
2023-02-15T20:40:28.817Z,99330.06
2023-02-15T20:42:55.617Z,99333.41
2023-02-15T20:45:33.489Z,99327.00
2023-02-15T20:48:02.063Z,99320.91
2023-02-15T20:50:31.451Z,99327.31
2023-02-15T20:52:59.884Z,99331.41
2023-02-15T20:55:29.524Z,99334.03
2023-02-15T20:58:01.426Z,99339.16
2023-02-15T21:00:31.174Z,99337.47
2023-02-15T21:02:59.735Z,99345.25
2023-02-15T21:05:35.259Z,99345.28
2023-02-15T21:08:02.361Z,99346.56
2023-02-15T21:10:31.750Z,99355.78
2023-02-15T21:13:11.985Z,99359.09
2023-02-15T21:15:41.862Z,99356.25
2023-02-15T21:18:17.004Z,99350.88
2023-02-15T21:20:48.590Z,99362.97
2023-02-15T21:23:18.160Z,99360.78
2023-02-15T21:25:44.867Z,99351.38
2023-02-15T21:28:18.864Z,99347.94
2023-02-15T21:30:47.697Z,99344.97
2023-02-15T21:33:15.160Z,99341.41
2023-02-15T21:35:44.244Z,99344.81
2023-02-15T21:38:17.239Z,99340.34
2023-02-15T21:40:49.645Z,99347.03
2023-02-15T21:43:44.442Z,99348.63
2023-02-15T21:46:38.097Z,99359.66
2023-02-15T21:49:10.872Z,99355.09
2023-02-15T21:51:55.735Z,99353.16
2023-02-15T21:54:24.735Z,99347.97
2023-02-15T21:56:54.048Z,99347.97
2023-02-15T21:59:20.725Z,99353.88
2023-02-15T22:01:49.511Z,99354.53
2023-02-15T22:04:26.769Z,99362.38
2023-02-15T22:06:53.522Z,99356.31
2023-02-15T22:09:25.268Z,99357.19
2023-02-15T22:11:52.367Z,99370.91
2023-02-15T22:14:37.460Z,99372.44
2023-02-15T22:17:23.676Z,99371.25
2023-02-15T22:19:51.038Z,99369.50
2023-02-15T22:22:17.915Z,99353.06
2023-02-15T22:24:48.273Z,99365.94
2023-02-15T22:27:21.882Z,99354.09
2023-02-15T22:29:49.965Z,99349.72
2023-02-15T22:32:26.652Z,99342.25
2023-02-15T22:34:54.724Z,99345.53
2023-02-15T22:37:21.427Z,99354.31
2023-02-15T22:39:48.146Z,99348.16
2023-02-15T22:42:25.289Z,99346.50
2023-02-15T22:44:57.131Z,99352.56
2023-02-15T22:47:26.400Z,99356.59
2023-02-15T22:49:56.997Z,99346.72
2023-02-15T22:52:24.303Z,99344.41
2023-02-15T22:54:50.848Z,99342.72
2023-02-15T22:57:34.852Z,99338.63
2023-02-15T23:00:01.566Z,99336.94
2023-02-15T23:02:28.353Z,99341.72
2023-02-15T23:04:55.050Z,99330.03
2023-02-15T23:07:23.243Z,99326.41
2023-02-15T23:09:51.164Z,99328.28
2023-02-15T23:12:26.077Z,99337.00
2023-02-15T23:14:53.930Z,99323.44
2023-02-15T23:17:21.219Z,99324.47
2023-02-15T23:19:47.797Z,99329.38
2023-02-15T23:22:20.900Z,99319.81
2023-02-15T23:24:53.564Z,99326.41
2023-02-15T23:27:38.740Z,99324.47
2023-02-15T23:30:13.712Z,99322.69
2023-02-15T23:32:40.841Z,99324.34
2023-02-15T23:35:17.034Z,99323.47
2023-02-15T23:37:44.102Z,99330.94
2023-02-15T23:40:33.960Z,99332.59
2023-02-15T23:43:03.169Z,99341.28
2023-02-15T23:45:33.032Z,99329.41
2023-02-15T23:48:18.297Z,99339.50
2023-02-15T23:50:44.853Z,99333.66
2023-02-15T23:53:11.465Z,99336.97
2023-02-15T23:55:43.194Z,99338.88
2023-02-15T23:58:23.900Z,99327.66
